Historique des stations

Station météo de Aubigny-sur-Nère

Altitude de la station : 197 m







Données météorologiques pour le 02/03/2021
Date
Heure
Températures Humidité Point de rosée Vitesse
du vent
Direction Rafales Windchill Pression Pluviométrie
Cumul
Date
Heure
Températures Humidité Point de rosée Vitesse
du vent
Direction Rafales Windchill Pression Pluviométrie
Cumul
02/03/2021 14:1416.7 °C20 %-6.7 °C18 km/hESE21 km/h15.0 1023 hPa-
02/03/2021 13:5916.7 °C19 %-7.2 °C13 km/hESE21 km/h16.1 1023 hPa-
02/03/2021 13:4416.6 °C16 %-9.4 °C13 km/hENE21 km/h16.1 1023 hPa-
02/03/2021 13:2916.8 °C19 %-7.2 °C6 km/hE21 km/h16.7 1023 hPa-
02/03/2021 13:1417.1 °C20 %-6.1 °C3 km/hSE21 km/h17.2 1023 hPa-
02/03/2021 12:5916.9 °C21 %-5.6 °C5 km/hSSO21 km/h16.7 1023 hPa-
02/03/2021 12:4416.1 °C24 %-4.4 °C13 km/hE21 km/h15.6 1023 hPa-
02/03/2021 12:2915.8 °C23 %-5.6 °C11 km/hE21 km/h15.6 1023 hPa-
02/03/2021 12:1416.0 °C23 %-5.0 °C11 km/hE21 km/h15.6 1023 hPa-
02/03/2021 11:5916.4 °C23 %-5.0 °C10 km/hE21 km/h16.7 1023 hPa-
02/03/2021 11:4416.3 °C22 %-5.6 °C2 km/hSSE21 km/h16.1 1023 hPa-
02/03/2021 11:2915.8 °C25 %-4.4 °C6 km/hESE21 km/h16.1 1023 hPa-
02/03/2021 11:1415.2 °C24 %-5.6 °C13 km/hSSE21 km/h13.9 1023 hPa-
02/03/2021 10:5915.4 °C26 %-3.9 °C3 km/hESE19 km/h15.6 1023 hPa-
02/03/2021 10:4414.6 °C30 %-2.8 °C5 km/hSSE19 km/h14.4 1023 hPa-
02/03/2021 10:3013.9 °C33 %-2.2 °C6 km/hSE19 km/h13.9 1023 hPa-
02/03/2021 10:1513.2 °C34 %-2.2 °C6 km/hESE19 km/h13.3 1023 hPa-
02/03/2021 10:0012.3 °C37 %-2.2 °C3 km/hSSE19 km/h12.2 1023 hPa-
02/03/2021 09:4511.4 °C40 %-1.7 °C3 km/hSSE19 km/h11.7 1023 hPa-
02/03/2021 09:3010.7 °C41 %-2.2 °C5 km/hSE19 km/h10.6 1023 hPa-
02/03/2021 09:1410.4 °C39 %-3.3 °C3 km/hS19 km/h10.6 1023 hPa-
02/03/2021 08:599.7 °C40 %-3.3 °C8 km/hSSE19 km/h8.9 1023 hPa-
02/03/2021 08:448.7 °C43 %-3.3 °C2 km/hSSE19 km/h8.9 1023 hPa-
02/03/2021 08:298.6 °C43 %-3.3 °C3 km/hS19 km/h7.8 1023 hPa-
02/03/2021 08:148.0 °C45 %-3.3 °C3 km/hSE19 km/h7.2 1023 hPa-
02/03/2021 07:597.7 °C46 %-3.3 °C5 km/hSSE19 km/h7.2 1022 hPa-
02/03/2021 07:447.4 °C47 %-3.3 °C13 km/hSE19 km/h4.4 1022 hPa-
02/03/2021 07:297.0 °C49 %-3.3 °C6 km/hSE19 km/h6.1 1022 hPa-
02/03/2021 07:146.8 °C50 %-3.3 °C6 km/hSE19 km/h5.6 1022 hPa-
02/03/2021 06:596.4 °C52 %-2.8 °C6 km/hSE19 km/h5.6 1022 hPa-
02/03/2021 06:446.2 °C52 %-3.3 °C6 km/hSE19 km/h5.0 1022 hPa-
02/03/2021 06:296.1 °C53 %-2.8 °C11 km/hSE19 km/h3.3 1022 hPa-
02/03/2021 06:146.2 °C53 %-2.8 °C5 km/hSE19 km/h5.6 1022 hPa-
02/03/2021 06:006.5 °C52 %-2.8 °C5 km/hSE19 km/h6.1 1022 hPa-
02/03/2021 05:456.8 °C51 %-2.8 °C3 km/hSE19 km/h6.1 1022 hPa-
02/03/2021 05:307.1 °C51 %-2.8 °C5 km/hSE19 km/h6.7 1022 hPa-
02/03/2021 05:157.6 °C49 %-2.8 °C5 km/hSSE19 km/h7.2 1021 hPa-
02/03/2021 05:008.3 °C48 %-2.2 °C3 km/hS19 km/h7.8 1021 hPa-
02/03/2021 04:458.8 °C47 %-2.2 °C6 km/hSSE19 km/h7.8 1021 hPa-
02/03/2021 04:308.4 °C48 %-2.2 °C10 km/hSSE19 km/h6.7 1021 hPa-
02/03/2021 04:158.9 °C47 %-2.2 °C11 km/hSSE19 km/h6.7 1021 hPa-
02/03/2021 04:008.8 °C48 %-1.7 °C3 km/hSO18 km/h8.3 1021 hPa-
02/03/2021 03:458.1 °C49 %-2.2 °C5 km/hSSO14 km/h7.8 1021 hPa-
02/03/2021 03:308.2 °C48 %-2.2 °C3 km/hS14 km/h7.8 1021 hPa-
02/03/2021 03:148.4 °C47 %-2.2 °C8 km/hS14 km/h6.7 1021 hPa-
02/03/2021 02:598.9 °C47 %-2.2 °C3 km/hSSE11 km/h8.3 1021 hPa-
02/03/2021 02:449.2 °C46 %-2.2 °C5 km/hSE11 km/h8.9 1021 hPa-
02/03/2021 02:299.5 °C45 %-2.2 °C10 km/hSE11 km/h7.8 1021 hPa-
02/03/2021 02:149.6 °C45 %-1.7 °C6 km/hSSE11 km/h8.3 1021 hPa-
02/03/2021 01:599.7 °C45 %-1.7 °C5 km/hSE11 km/h8.9 1021 hPa-
02/03/2021 01:449.6 °C45 %-1.7 °C8 km/hSSE11 km/h8.3 1021 hPa-
02/03/2021 01:299.6 °C45 %-1.7 °C3 km/hSSE11 km/h8.9 1021 hPa-
02/03/2021 01:149.7 °C45 %-1.7 °C5 km/hSSE11 km/h9.4 1021 hPa-
02/03/2021 00:598.6 °C47 %-2.2 °C5 km/hESE10 km/h7.8 1021 hPa-
02/03/2021 00:448.1 °C49 %-2.2 °C3 km/hESE10 km/h7.8 1021 hPa-
02/03/2021 00:298.2 °C49 %-2.2 °C3 km/hESE10 km/h7.8 1021 hPa-
02/03/2021 00:148.5 °C49 %-1.7 °C6 km/hE10 km/h7.2 1021 hPa-


Minima :

Température : 6.1 °C
Humidité : 16 %
Point de rosée : -9.4 °C
Vent moyen : 2 km/h
Windchill : 3.3
Pression atm. : 1021 hPa
Maxima :

Température : 17.1 °C
Humidité : 53 %
Point de rosée : -1.7 °C
Vent moyen : 18 km/h
Windchill : 17.2
Pression atm. : 1023 hPa
Rafales max : 21 km/h
Cumul de pluie sur 24H : 0 mm

Aubigny-sur-Nère est une commune du département Cher (18).
La station météorologique du réseau de l'association la plus proche de Aubigny-sur-Nère est celle de Salbris



Icône Facebook Association Météo Centre Icône Twitter Association Météo Centre Icône Chaîne Youtube Association Météo Centre Icône contact Association Météo Centre Icône Insta Association Météo Centre